createdAt,value
2022-10-01T00:07:49.480Z,100266.13
2022-10-01T00:18:10.815Z,100252.50
2022-10-01T00:28:32.510Z,100239.22
2022-10-01T00:38:54.282Z,100217.34
2022-10-01T00:49:17.413Z,100208.28
2022-10-01T00:59:39.150Z,100195.28
2022-10-01T01:10:01.323Z,100186.47
2022-10-01T01:20:25.656Z,100172.22
2022-10-01T01:30:49.389Z,100162.78
2022-10-01T01:41:11.586Z,100141.94
2022-10-01T01:51:36.362Z,100117.88
2022-10-01T02:01:59.096Z,100087.56
2022-10-01T02:12:43.115Z,100062.69
2022-10-01T02:23:13.409Z,100042.09
2022-10-01T02:33:36.367Z,100014.81
2022-10-01T02:44:01.341Z,99993.69
2022-10-01T02:54:26.812Z,99984.03
2022-10-01T03:04:48.572Z,99972.16
2022-10-01T03:15:10.421Z,99928.00
2022-10-01T03:25:32.009Z,99882.44
2022-10-01T03:35:53.374Z,99844.31
2022-10-01T03:46:14.857Z,99825.34
2022-10-01T03:56:36.310Z,99844.63
2022-10-01T04:06:57.672Z,99835.22
2022-10-01T04:17:19.019Z,99825.28
2022-10-01T04:27:41.065Z,99808.78
2022-10-01T04:38:04.008Z,99790.03
2022-10-01T04:48:25.426Z,99784.19
2022-10-01T04:58:46.816Z,99770.03
2022-10-01T05:09:08.200Z,99760.06
2022-10-01T05:19:30.657Z,99734.16
2022-10-01T05:29:52.485Z,99721.88
2022-10-01T05:40:13.897Z,99724.69
2022-10-01T05:50:39.217Z,99733.25
2022-10-01T06:01:00.660Z,99732.84
2022-10-01T06:11:24.261Z,99731.81
2022-10-01T06:21:45.646Z,99731.81
2022-10-01T06:32:08.003Z,99726.03
2022-10-01T06:42:29.364Z,99725.00
2022-10-01T06:52:51.132Z,99731.66
2022-10-01T07:03:17.216Z,99729.91
2022-10-01T07:13:38.558Z,99736.38
2022-10-01T07:23:59.907Z,99746.31
2022-10-01T07:34:22.235Z,99752.69
2022-10-01T07:44:43.593Z,99761.94
2022-10-01T07:55:06.180Z,99763.19
2022-10-01T08:05:29.098Z,99780.56
2022-10-01T08:15:53.404Z,99784.13
2022-10-01T08:26:14.767Z,99801.47
2022-10-01T08:36:37.804Z,99800.13
2022-10-01T08:47:01.881Z,99807.81
2022-10-01T08:57:37.024Z,99813.53
2022-10-01T09:08:17.290Z,99818.16
2022-10-01T09:18:54.046Z,99836.34
2022-10-01T09:29:41.890Z,99835.88
2022-10-01T09:40:12.815Z,99846.53
2022-10-01T09:50:39.951Z,99853.75
2022-10-01T10:01:01.496Z,99874.81
2022-10-01T10:11:24.472Z,99881.50
2022-10-01T10:22:09.106Z,99903.06
2022-10-01T10:32:30.654Z,99922.13
2022-10-01T10:42:53.360Z,99907.75
2022-10-01T10:53:22.297Z,99917.16
2022-10-01T11:03:46.426Z,99916.63
2022-10-01T11:14:23.797Z,99914.09
2022-10-01T11:24:48.407Z,99921.91
2022-10-01T11:35:19.537Z,99897.47
2022-10-01T11:45:43.447Z,99922.78
2022-10-01T11:56:26.580Z,100006.13
2022-10-01T12:06:54.260Z,100015.97
2022-10-01T12:17:33.971Z,100028.25
2022-10-01T12:28:04.636Z,100033.66
2022-10-01T12:38:33.200Z,100036.81
2022-10-01T12:49:02.977Z,100053.53
2022-10-01T12:59:27.488Z,100070.97
2022-10-01T13:10:02.519Z,100074.03
2022-10-01T13:20:35.515Z,100070.09
2022-10-01T13:31:01.406Z,100084.34
2022-10-01T13:41:25.873Z,100107.84
2022-10-01T13:51:47.378Z,100115.03
2022-10-01T14:02:27.798Z,100127.03
2022-10-01T14:13:08.533Z,100161.59
2022-10-01T14:23:48.377Z,100177.75
2022-10-01T14:34:29.803Z,100194.47
2022-10-01T14:44:51.309Z,100216.09
2022-10-01T14:55:13.713Z,100226.03
2022-10-01T15:05:37.181Z,100244.00
2022-10-01T15:15:59.664Z,100265.28
2022-10-01T15:26:29.850Z,100281.56
2022-10-01T15:36:52.267Z,100297.03
2022-10-01T15:47:19.728Z,100314.19
2022-10-01T15:57:42.190Z,100309.53
2022-10-01T16:08:03.924Z,100339.97
2022-10-01T16:18:25.454Z,100365.47
2022-10-01T16:28:47.140Z,100378.66
2022-10-01T16:39:08.830Z,100391.00
2022-10-01T16:49:30.298Z,100411.66
2022-10-01T16:59:51.862Z,100428.75
2022-10-01T17:10:14.125Z,100449.63
2022-10-01T17:20:37.577Z,100470.66
2022-10-01T17:30:59.036Z,100486.88
2022-10-01T17:41:20.568Z,100510.75
2022-10-01T17:51:42.032Z,100531.41
2022-10-01T18:02:18.625Z,100533.88
2022-10-01T18:12:45.350Z,100569.78
2022-10-01T18:23:07.314Z,100592.44
2022-10-01T18:33:29.272Z,100604.81
2022-10-01T18:43:50.815Z,100619.91
2022-10-01T18:54:24.936Z,100630.88
2022-10-01T19:04:49.519Z,100635.03
2022-10-01T19:15:40.219Z,100644.81
2022-10-01T19:26:22.538Z,100656.47
2022-10-01T19:37:06.950Z,100658.59
2022-10-01T19:47:34.533Z,100685.47
2022-10-01T19:57:56.109Z,100690.19
2022-10-01T20:08:40.578Z,100715.19
2022-10-01T20:19:23.789Z,100731.22
2022-10-01T20:30:04.852Z,100753.91
2022-10-01T20:40:49.468Z,100757.59
2022-10-01T20:51:40.167Z,100766.03
2022-10-01T21:02:13.383Z,100777.09
2022-10-01T21:12:42.455Z,100791.00
2022-10-01T21:23:16.441Z,100776.63
2022-10-01T21:33:54.062Z,100784.91
2022-10-01T21:44:34.109Z,100797.31
2022-10-01T21:55:14.354Z,100813.25
2022-10-01T22:05:45.039Z,100822.09
2022-10-01T22:16:10.139Z,100831.22
2022-10-01T22:26:34.209Z,100846.28
2022-10-01T22:37:01.877Z,100840.25
2022-10-01T22:47:55.250Z,100834.34
2022-10-01T22:58:16.695Z,100849.22
2022-10-01T23:08:53.004Z,100865.13
2022-10-01T23:20:01.064Z,100883.38
2022-10-01T23:30:22.835Z,100902.31
2022-10-01T23:40:45.494Z,100887.75
2022-10-01T23:51:17.538Z,100916.84
